Marfa, TX (79843)

6:36 AM CDT on August 28, 2016 (GMT -0500)
MesoWest | | Change Station

Elev 4886 ft 30.35 °N, 104.13 °W | Updated 56 minutes ago

Clear
Clear
69.0 °F
Feels Like 69.0 °F
N
1.0
Wind Variable Wind from ENE
Gusts 8.0 mph

Today
High -- | Low -- °F
--% Chance of Precip.
Yesterday
High -- | Low -- °F
Precip. -- in
Pressure 30.22 in
Visibility 10.0 miles
Clouds Clear
Dew Point Not available.
Humidity Not available.
Rainfall in
Snow Depth Not available.
7:30 AM 8:22 PM
Waning Crescent, 16% visible
METAR KE38 281115Z AUTO 23003KT 10SM CLR 17/15 A3022 RMK AO2 LTG DSNT W T01670150
Pressure 30.22 in
Visibility 10.0 miles
Clouds Clear
Dew Point Not available.
Humidity Not available.
Rainfall in
Snow Depth Not available.
7:30 AM 8:22 PM
Waning Crescent, 16% visible
METAR KE38 281115Z AUTO 23003KT 10SM CLR 17/15 A3022 RMK AO2 LTG DSNT W T01670150

10-Day Weather Forecast

Almanac

Astronomy

Aug. 28, 2016 Rise Set
Actual Time
Civil Twilight
Nautical Twilight
Astronomical Twilight
Moon
Length of Visible Light
Length of Day
Tomorrow will be .
, % of the Moon is Illuminated

Today's Extremes

State Highs State Lows

Community

WunderPhotos

Upload Photos

1,935,545 photos uploaded!

WunderBlog® & News

Nearby

Air Quality

  Air Quality AQ Index Pollutant
Not available.

Snow Depth

Station Depth Elevation

Earthquake Activity

City Distance Mag. Time & Date
Minimum magnitude displayed is 2.5.

Coastal Water Temperatures

Place Temperature

Stations

Nearby Weather Stations

Station Location Temp. Windchill Dew Point Humidity Wind Precip. Elev Updated Type
                   

Watches & Warnings

There are currently no watches in effect.